createdAt,value
2017-10-02T00:00:43.521Z,9.39
2017-10-02T00:01:43.521Z,9.36
2017-10-02T00:02:43.523Z,9.33
2017-10-02T00:03:43.528Z,9.30
2017-10-02T00:04:43.528Z,9.22
2017-10-02T00:05:43.533Z,9.22
2017-10-02T00:06:43.539Z,9.19
2017-10-02T00:07:43.540Z,9.16
2017-10-02T00:08:43.554Z,9.15
2017-10-02T00:09:43.549Z,9.13
2017-10-02T00:10:43.551Z,9.10
2017-10-02T00:11:43.886Z,9.08
2017-10-02T00:12:43.566Z,9.00
2017-10-02T00:13:43.561Z,8.97
2017-10-02T00:14:43.566Z,8.98
2017-10-02T00:15:43.571Z,9.02
2017-10-02T00:16:43.570Z,9.04
2017-10-02T00:17:43.575Z,8.98
2017-10-02T00:18:43.595Z,8.98
2017-10-02T00:19:43.580Z,8.96
2017-10-02T00:20:43.582Z,8.95
2017-10-02T00:21:43.587Z,8.94
2017-10-02T00:22:43.601Z,8.93
2017-10-02T00:23:43.605Z,8.92
2017-10-02T00:24:43.610Z,8.92
2017-10-02T00:25:43.600Z,8.99
2017-10-02T00:26:43.601Z,9.03
2017-10-02T00:27:43.604Z,9.06
2017-10-02T00:28:43.609Z,9.14
2017-10-02T00:29:43.615Z,9.08
2017-10-02T00:30:43.616Z,9.06
2017-10-02T00:31:43.619Z,8.97
2017-10-02T00:32:43.626Z,8.93
2017-10-02T00:33:43.625Z,8.92
2017-10-02T00:34:43.648Z,8.95
2017-10-02T00:35:43.633Z,8.99
2017-10-02T00:36:43.637Z,8.94
2017-10-02T00:37:43.645Z,8.91
2017-10-02T00:38:43.651Z,8.91
2017-10-02T00:39:43.645Z,8.99
2017-10-02T00:40:43.653Z,9.07
2017-10-02T00:41:43.657Z,9.11
2017-10-02T00:42:43.658Z,9.04
2017-10-02T00:43:43.664Z,8.98
2017-10-02T00:44:43.666Z,9.03
2017-10-02T00:45:43.675Z,9.07
2017-10-02T00:46:43.677Z,9.08
2017-10-02T00:47:43.674Z,9.11
2017-10-02T00:48:43.685Z,9.13
2017-10-02T00:49:43.680Z,9.12
2017-10-02T00:50:43.716Z,9.06
2017-10-02T00:51:43.689Z,9.03
2017-10-02T00:52:43.695Z,8.99
2017-10-02T00:53:43.703Z,8.98
2017-10-02T00:54:43.707Z,8.94
2017-10-02T00:55:43.701Z,8.85
2017-10-02T00:56:43.703Z,8.77
2017-10-02T00:57:43.711Z,8.72
2017-10-02T00:58:43.709Z,8.70
2017-10-02T00:59:43.715Z,8.74
2017-10-02T01:02:32.211Z,8.79
2017-10-02T01:02:34.008Z,8.84
2017-10-02T01:02:43.722Z,8.89
2017-10-02T01:05:51.879Z,8.91
2017-10-02T01:05:53.892Z,8.95
2017-10-02T01:05:54.805Z,9.00
2017-10-02T01:08:32.939Z,9.05
2017-10-02T01:08:35.149Z,9.08
2017-10-02T01:08:43.744Z,9.11
2017-10-02T01:11:56.906Z,9.13
2017-10-02T01:11:59.507Z,9.16
2017-10-02T01:12:00.317Z,9.19
2017-10-02T01:14:32.233Z,9.21
2017-10-02T01:14:34.401Z,9.25
2017-10-02T01:14:43.765Z,9.27
2017-10-02T01:18:00.003Z,9.30
2017-10-02T01:18:01.486Z,9.30
2017-10-02T01:18:02.200Z,9.31
2017-10-02T01:20:32.807Z,9.29
2017-10-02T01:20:34.931Z,9.29
2017-10-02T01:20:43.781Z,9.31
2017-10-02T01:23:50.914Z,9.32
2017-10-02T01:23:53.243Z,9.33
2017-10-02T01:23:54.058Z,9.30
2017-10-02T01:27:06.149Z,9.29
2017-10-02T01:27:08.284Z,9.27
2017-10-02T01:27:09.098Z,9.26
2017-10-02T01:29:55.957Z,9.22
2017-10-02T01:29:57.944Z,9.24
2017-10-02T01:29:58.655Z,9.27
2017-10-02T01:32:34.108Z,9.25
2017-10-02T01:32:35.601Z,9.23
2017-10-02T01:32:43.840Z,9.22
2017-10-02T01:35:43.852Z,9.18
2017-10-02T01:35:45.622Z,9.15
2017-10-02T01:35:46.533Z,9.06
2017-10-02T01:39:06.179Z,9.00
2017-10-02T01:39:08.363Z,8.93
2017-10-02T01:39:09.175Z,8.89
2017-10-02T01:41:46.873Z,8.84
2017-10-02T01:41:48.409Z,8.88
2017-10-02T01:41:49.323Z,8.91
2017-10-02T01:44:29.969Z,8.83
2017-10-02T01:44:31.664Z,8.85
2017-10-02T01:44:43.869Z,8.85
2017-10-02T01:47:48.993Z,8.89
2017-10-02T01:47:50.483Z,8.92
2017-10-02T01:47:51.303Z,8.87
2017-10-02T01:50:31.002Z,8.91
2017-10-02T01:50:32.452Z,8.95
2017-10-02T01:50:43.880Z,9.01
2017-10-02T01:53:51.987Z,9.09
2017-10-02T01:53:53.771Z,9.09
2017-10-02T01:53:54.788Z,9.11
2017-10-02T01:57:02.133Z,9.13
2017-10-02T01:57:04.218Z,9.06
2017-10-02T01:57:05.176Z,8.99
2017-10-02T01:59:53.875Z,8.93
2017-10-02T01:59:55.746Z,8.91
2017-10-02T01:59:56.854Z,8.93
2017-10-02T02:00:43.915Z,8.86
2017-10-02T02:01:43.925Z,8.79
2017-10-02T02:02:43.922Z,8.71
2017-10-02T02:03:43.929Z,8.65
2017-10-02T02:04:43.928Z,8.60
2017-10-02T02:05:43.932Z,8.62
2017-10-02T02:06:43.938Z,8.63
2017-10-02T02:07:43.942Z,8.69
2017-10-02T02:08:43.940Z,8.70
2017-10-02T02:09:43.944Z,8.75
2017-10-02T02:10:43.948Z,8.83
2017-10-02T02:11:43.951Z,8.89
2017-10-02T02:12:43.957Z,8.93
2017-10-02T02:13:43.968Z,8.97
2017-10-02T02:14:43.972Z,8.99
2017-10-02T02:15:43.966Z,8.99
2017-10-02T02:16:43.968Z,9.06
2017-10-02T02:17:43.975Z,9.11
2017-10-02T02:18:43.974Z,9.15
2017-10-02T02:19:43.982Z,9.18
2017-10-02T02:20:43.989Z,9.16
2017-10-02T02:21:43.991Z,9.22
2017-10-02T02:22:43.991Z,9.23
2017-10-02T02:23:43.999Z,9.25
2017-10-02T02:24:44.001Z,9.26
2017-10-02T02:25:44.013Z,9.26
2017-10-02T02:26:44.000Z,9.21
2017-10-02T02:27:44.009Z,9.15
2017-10-02T02:28:44.008Z,9.10
2017-10-02T02:29:44.017Z,9.09
2017-10-02T02:30:44.016Z,9.10
2017-10-02T02:31:44.024Z,9.14
2017-10-02T02:32:44.020Z,9.15
2017-10-02T02:33:44.027Z,9.19
2017-10-02T02:34:44.025Z,9.17
2017-10-02T02:35:44.033Z,9.20
2017-10-02T02:36:44.038Z,9.19
2017-10-02T02:37:44.039Z,9.14
2017-10-02T02:38:44.042Z,9.17
2017-10-02T02:39:44.048Z,9.18
2017-10-02T02:40:44.049Z,9.19
2017-10-02T02:41:44.056Z,9.19
2017-10-02T02:42:44.053Z,9.20
2017-10-02T02:43:44.063Z,9.19
2017-10-02T02:44:44.066Z,9.22
2017-10-02T02:45:44.068Z,9.21
2017-10-02T02:46:44.069Z,9.19
2017-10-02T02:47:44.072Z,9.16
2017-10-02T02:48:44.077Z,9.17
2017-10-02T02:49:44.078Z,9.20
2017-10-02T02:50:44.080Z,9.18
2017-10-02T02:51:44.088Z,9.11
2017-10-02T02:52:44.096Z,9.09
2017-10-02T02:53:44.097Z,9.09
2017-10-02T02:54:44.096Z,9.08
2017-10-02T02:55:44.103Z,9.07
2017-10-02T02:56:44.109Z,9.05
2017-10-02T02:57:44.106Z,9.05
2017-10-02T02:58:44.107Z,9.08
2017-10-02T02:59:44.110Z,9.09
2017-10-02T03:00:44.112Z,9.09
2017-10-02T03:01:44.117Z,9.11
2017-10-02T03:02:44.121Z,9.14
2017-10-02T03:03:44.123Z,9.12
2017-10-02T03:04:44.130Z,9.08
2017-10-02T03:05:44.129Z,9.06
2017-10-02T03:06:44.136Z,9.07
2017-10-02T03:07:44.137Z,9.06
2017-10-02T03:08:44.148Z,9.06
2017-10-02T03:09:44.158Z,9.06
2017-10-02T03:10:44.147Z,9.06
2017-10-02T03:11:44.149Z,9.07
2017-10-02T03:12:44.155Z,9.07
2017-10-02T03:13:44.162Z,9.10
2017-10-02T03:14:44.164Z,9.11
2017-10-02T03:15:44.166Z,9.12
2017-10-02T03:16:44.168Z,9.13
2017-10-02T03:17:44.171Z,9.16
2017-10-02T03:18:44.172Z,9.16
2017-10-02T03:19:44.177Z,9.15
2017-10-02T03:20:44.179Z,9.15
2017-10-02T03:21:44.185Z,9.14
2017-10-02T03:22:44.190Z,9.15
2017-10-02T03:23:44.193Z,9.14
2017-10-02T03:24:44.194Z,9.13
2017-10-02T03:25:44.206Z,9.13
2017-10-02T03:26:44.207Z,9.12
2017-10-02T03:27:44.205Z,9.14
2017-10-02T03:28:44.211Z,9.11
2017-10-02T03:29:44.212Z,9.11
2017-10-02T03:30:44.214Z,9.11
2017-10-02T03:32:02.751Z,9.11
2017-10-02T03:33:49.883Z,9.04
2017-10-02T03:33:51.310Z,9.01
2017-10-02T03:33:52.122Z,8.98
2017-10-02T03:34:44.233Z,9.00
2017-10-02T03:35:44.233Z,9.01
2017-10-02T03:36:44.243Z,8.99
2017-10-02T03:37:44.241Z,8.98
2017-10-02T03:38:44.244Z,8.99
2017-10-02T03:39:44.250Z,9.00
2017-10-02T03:40:44.246Z,9.04
2017-10-02T03:41:44.254Z,9.02
2017-10-02T03:42:44.255Z,9.01
2017-10-02T03:43:44.260Z,8.99
2017-10-02T03:44:44.264Z,9.03
2017-10-02T03:45:44.262Z,9.07
2017-10-02T03:46:44.270Z,9.06
2017-10-02T03:47:44.268Z,9.06
2017-10-02T03:48:44.275Z,9.09
2017-10-02T03:49:44.279Z,9.11
2017-10-02T03:50:44.286Z,9.12
2017-10-02T03:51:44.284Z,9.14
2017-10-02T03:52:44.286Z,9.15
2017-10-02T03:53:44.291Z,9.19
2017-10-02T03:54:44.298Z,9.17
2017-10-02T03:55:44.303Z,9.17
2017-10-02T03:56:44.305Z,9.16
2017-10-02T03:57:44.312Z,9.18
2017-10-02T03:58:44.310Z,9.19
2017-10-02T03:59:44.313Z,9.16
2017-10-02T04:00:44.312Z,9.15
2017-10-02T04:01:44.318Z,9.14
2017-10-02T04:02:44.322Z,9.15
2017-10-02T04:03:44.331Z,9.18
2017-10-02T04:04:44.340Z,9.20
2017-10-02T04:05:44.328Z,9.22
2017-10-02T04:06:44.337Z,9.20
2017-10-02T04:07:44.336Z,9.21
2017-10-02T04:08:44.341Z,9.23
2017-10-02T04:09:44.346Z,9.24
2017-10-02T04:10:44.348Z,9.24
2017-10-02T04:11:44.349Z,9.25
2017-10-02T04:12:44.356Z,9.27
2017-10-02T04:13:44.358Z,9.28
2017-10-02T04:14:44.357Z,9.28
2017-10-02T04:15:44.364Z,9.30
2017-10-02T04:16:44.367Z,9.30
2017-10-02T04:17:44.368Z,9.31
2017-10-02T04:18:44.371Z,9.34
2017-10-02T04:19:44.375Z,9.32
2017-10-02T04:20:44.382Z,9.35
2017-10-02T04:21:44.382Z,9.35
2017-10-02T04:22:44.388Z,9.37
2017-10-02T04:23:44.388Z,9.35
2017-10-02T04:24:44.396Z,9.35
2017-10-02T04:25:44.400Z,9.37
2017-10-02T04:26:44.403Z,9.38
2017-10-02T04:27:44.411Z,9.41
2017-10-02T04:28:44.414Z,9.40
2017-10-02T04:29:44.410Z,9.42
2017-10-02T04:30:44.417Z,9.44
2017-10-02T04:31:44.419Z,9.46
2017-10-02T04:32:44.419Z,9.47
2017-10-02T04:33:44.422Z,9.49
2017-10-02T04:34:44.431Z,9.49
2017-10-02T04:35:44.428Z,9.52
2017-10-02T04:36:44.437Z,9.55
2017-10-02T04:37:44.434Z,9.57
2017-10-02T04:38:44.436Z,9.61
2017-10-02T04:39:44.442Z,9.55
2017-10-02T04:40:44.445Z,9.57
2017-10-02T04:41:44.450Z,9.64
2017-10-02T04:42:44.452Z,9.67
2017-10-02T04:43:44.457Z,9.65
2017-10-02T04:44:44.461Z,9.68
2017-10-02T04:45:44.462Z,9.70
2017-10-02T04:46:44.465Z,9.65
2017-10-02T04:47:44.466Z,9.65
2017-10-02T04:48:44.472Z,9.66
2017-10-02T04:49:44.475Z,9.65
2017-10-02T04:50:44.478Z,9.58
2017-10-02T04:51:44.483Z,9.58
2017-10-02T04:52:44.485Z,9.49
2017-10-02T04:53:44.490Z,9.49
2017-10-02T04:54:44.497Z,9.47
2017-10-02T04:55:44.500Z,9.51
2017-10-02T04:56:44.510Z,9.51
2017-10-02T04:57:44.510Z,9.49
2017-10-02T04:58:44.510Z,9.49
2017-10-02T04:59:44.510Z,9.48
2017-10-02T05:00:44.530Z,9.47
2017-10-02T05:01:44.514Z,9.45
2017-10-02T05:02:44.520Z,9.44
2017-10-02T05:03:44.523Z,9.43
2017-10-02T05:04:44.529Z,9.42
2017-10-02T05:05:44.534Z,9.45
2017-10-02T05:06:44.530Z,9.48
2017-10-02T05:07:44.544Z,9.48
2017-10-02T05:08:44.537Z,9.51
2017-10-02T05:09:44.543Z,9.53
2017-10-02T05:10:44.543Z,9.54
2017-10-02T05:11:44.549Z,9.55
2017-10-02T05:12:44.557Z,9.59
2017-10-02T05:13:44.553Z,9.62
2017-10-02T05:14:44.564Z,9.63
2017-10-02T05:15:44.576Z,9.63
2017-10-02T05:16:44.566Z,9.65
2017-10-02T05:17:44.568Z,9.66
2017-10-02T05:18:44.575Z,9.69
2017-10-02T05:19:44.577Z,9.70
2017-10-02T05:20:44.576Z,9.73
2017-10-02T05:21:44.581Z,9.77
2017-10-02T05:22:44.589Z,9.80
2017-10-02T05:23:44.597Z,9.84
2017-10-02T05:24:44.600Z,9.87
2017-10-02T05:25:44.592Z,9.89
2017-10-02T05:26:44.599Z,9.89
2017-10-02T05:27:44.607Z,9.90
2017-10-02T05:28:44.614Z,9.92
2017-10-02T05:29:44.608Z,9.93
2017-10-02T05:30:44.611Z,9.95
2017-10-02T05:31:44.611Z,9.96
2017-10-02T05:32:44.617Z,9.98
2017-10-02T05:33:44.622Z,9.99
2017-10-02T05:34:44.629Z,10.01
2017-10-02T05:35:44.631Z,10.04
2017-10-02T05:36:44.631Z,10.09
2017-10-02T05:37:44.636Z,10.11
2017-10-02T05:38:44.660Z,10.16
2017-10-02T05:39:44.642Z,10.21
2017-10-02T05:40:44.645Z,10.26
2017-10-02T05:41:44.657Z,10.31
2017-10-02T05:42:44.653Z,10.34
2017-10-02T05:43:44.660Z,10.35
2017-10-02T05:44:44.660Z,10.35
2017-10-02T05:45:44.663Z,10.36
2017-10-02T05:46:44.666Z,10.37
2017-10-02T05:47:44.669Z,10.36
2017-10-02T05:48:44.668Z,10.37
2017-10-02T05:49:44.675Z,10.37
2017-10-02T05:50:44.677Z,10.38
2017-10-02T05:51:44.684Z,10.38
2017-10-02T05:52:44.701Z,10.38
2017-10-02T05:53:44.688Z,10.38
2017-10-02T05:54:44.701Z,10.40
2017-10-02T05:55:44.701Z,10.40
2017-10-02T05:56:44.701Z,10.40
2017-10-02T05:57:44.702Z,10.42
2017-10-02T05:58:44.712Z,10.43
2017-10-02T05:59:44.718Z,10.41
2017-10-02T06:00:44.725Z,10.41
2017-10-02T06:01:44.822Z,10.43
2017-10-02T06:02:44.738Z,10.44
2017-10-02T06:03:44.744Z,10.45
2017-10-02T06:04:44.728Z,10.47
2017-10-02T06:05:44.736Z,10.45
2017-10-02T06:06:44.731Z,10.47
2017-10-02T06:07:44.739Z,10.48
2017-10-02T06:08:44.736Z,10.48
2017-10-02T06:09:44.746Z,10.51
2017-10-02T06:10:44.743Z,10.53
2017-10-02T06:11:44.750Z,10.54
2017-10-02T06:12:44.752Z,10.56
2017-10-02T06:13:44.768Z,10.57
2017-10-02T06:14:44.771Z,10.56
2017-10-02T06:15:44.765Z,10.57
2017-10-02T06:16:44.768Z,10.60
2017-10-02T06:17:44.835Z,10.63
2017-10-02T06:18:44.777Z,10.66
2017-10-02T06:19:44.791Z,10.71
2017-10-02T06:20:44.784Z,10.73
2017-10-02T06:21:44.825Z,10.78
2017-10-02T06:22:44.785Z,10.82
2017-10-02T06:23:44.790Z,10.83
2017-10-02T06:24:44.791Z,10.88
2017-10-02T06:25:44.793Z,10.92
2017-10-02T06:26:44.800Z,10.97
2017-10-02T06:27:44.801Z,11.02
2017-10-02T06:28:44.806Z,11.06
2017-10-02T06:29:44.808Z,11.08
2017-10-02T06:30:44.830Z,11.13
2017-10-02T06:31:44.815Z,11.18
2017-10-02T06:32:44.822Z,11.19
2017-10-02T06:33:44.821Z,11.20
2017-10-02T06:34:44.829Z,11.21
2017-10-02T06:35:44.840Z,11.23
2017-10-02T06:36:44.830Z,11.27
2017-10-02T06:37:44.842Z,11.32
2017-10-02T06:38:44.834Z,11.38
2017-10-02T06:39:44.842Z,11.44
2017-10-02T06:40:44.889Z,11.46
2017-10-02T06:41:44.861Z,11.57
2017-10-02T06:42:44.853Z,11.68
2017-10-02T06:43:44.858Z,11.73
2017-10-02T06:44:44.857Z,11.85
2017-10-02T06:45:45.096Z,11.96
2017-10-02T06:46:44.864Z,11.98
2017-10-02T06:47:44.905Z,12.06
2017-10-02T06:48:44.876Z,12.07
2017-10-02T06:49:44.877Z,12.11
2017-10-02T06:50:44.877Z,12.15
2017-10-02T06:51:44.881Z,12.18
2017-10-02T06:52:44.913Z,12.15
2017-10-02T06:53:44.885Z,12.17
2017-10-02T06:54:44.944Z,12.12
2017-10-02T06:55:44.895Z,12.15
2017-10-02T06:56:44.899Z,12.14
2017-10-02T06:57:44.902Z,12.14
2017-10-02T06:58:44.906Z,12.20
2017-10-02T06:59:44.908Z,12.27
2017-10-02T07:00:44.933Z,12.36
2017-10-02T07:01:44.915Z,12.48
2017-10-02T07:02:44.916Z,12.59
2017-10-02T07:03:44.923Z,12.73
2017-10-02T07:04:44.926Z,12.87
2017-10-02T07:05:44.931Z,12.95
2017-10-02T07:06:45.021Z,13.05
2017-10-02T07:07:44.934Z,13.10
2017-10-02T07:08:45.047Z,13.17
2017-10-02T07:09:44.942Z,13.23
2017-10-02T07:10:44.944Z,13.27
2017-10-02T07:11:44.952Z,13.27
2017-10-02T07:12:44.955Z,13.27
2017-10-02T07:13:44.959Z,13.25
2017-10-02T07:14:44.957Z,13.22
2017-10-02T07:15:44.987Z,13.11
2017-10-02T07:16:44.972Z,12.99
2017-10-02T07:17:44.969Z,12.92
2017-10-02T07:18:44.981Z,12.90
2017-10-02T07:19:44.973Z,12.92
2017-10-02T07:20:44.977Z,12.95
2017-10-02T07:21:45.040Z,13.04
2017-10-02T07:22:44.986Z,13.08
2017-10-02T07:23:45.002Z,13.12
2017-10-02T07:24:44.992Z,13.14
2017-10-02T07:25:44.993Z,13.10
2017-10-02T07:26:44.996Z,13.11
2017-10-02T07:27:45.000Z,13.14
2017-10-02T07:28:45.008Z,13.10
2017-10-02T07:29:45.011Z,13.12
2017-10-02T07:30:45.034Z,13.17
2017-10-02T07:31:45.031Z,13.23
2017-10-02T07:32:45.020Z,13.29
2017-10-02T07:33:45.031Z,13.33
2017-10-02T07:34:45.709Z,13.44
2017-10-02T07:35:45.028Z,13.67
2017-10-02T07:36:45.029Z,13.90
2017-10-02T07:37:45.036Z,14.13
2017-10-02T07:38:45.037Z,14.32
2017-10-02T07:39:45.039Z,14.59
2017-10-02T07:40:45.048Z,14.91
2017-10-02T07:41:45.051Z,15.03
2017-10-02T07:42:45.188Z,15.22
2017-10-02T07:43:45.056Z,15.48
2017-10-02T07:44:45.067Z,15.70
2017-10-02T07:45:45.066Z,15.78
2017-10-02T07:46:45.064Z,15.87
2017-10-02T07:47:45.069Z,15.90
2017-10-02T07:48:45.634Z,15.70
2017-10-02T07:49:45.079Z,15.61
2017-10-02T07:50:45.092Z,15.42
2017-10-02T07:51:45.081Z,15.12
2017-10-02T07:52:45.083Z,15.01
2017-10-02T07:53:45.084Z,14.90
2017-10-02T07:54:45.092Z,14.86
2017-10-02T07:55:45.098Z,14.80
2017-10-02T07:56:45.097Z,14.75
2017-10-02T07:57:45.103Z,14.67
2017-10-02T07:58:45.101Z,14.64
2017-10-02T07:59:45.111Z,14.62
2017-10-02T08:00:45.131Z,14.67
2017-10-02T08:01:45.120Z,14.69
2017-10-02T08:02:45.130Z,14.73
2017-10-02T08:03:45.133Z,14.78
2017-10-02T08:04:45.141Z,14.78
2017-10-02T08:05:45.134Z,14.76
2017-10-02T08:06:45.137Z,14.78
2017-10-02T08:07:45.133Z,14.80
2017-10-02T08:08:45.156Z,14.81
2017-10-02T08:09:45.167Z,14.84
2017-10-02T08:10:45.150Z,14.81
2017-10-02T08:11:45.151Z,14.78
2017-10-02T08:12:45.171Z,14.75
2017-10-02T08:13:45.172Z,14.75
2017-10-02T08:14:45.171Z,14.73
2017-10-02T08:15:45.197Z,14.75
2017-10-02T08:16:45.222Z,14.69
2017-10-02T08:17:45.172Z,14.68
2017-10-02T08:18:45.216Z,14.62
2017-10-02T08:19:45.184Z,14.64
2017-10-02T08:20:45.346Z,14.64
2017-10-02T08:21:45.183Z,14.62
2017-10-02T08:22:45.183Z,14.59
2017-10-02T08:23:45.185Z,14.61
2017-10-02T08:24:45.190Z,14.63
2017-10-02T08:25:45.508Z,14.60
2017-10-02T08:26:45.198Z,14.59
2017-10-02T08:27:45.198Z,14.56
2017-10-02T08:28:45.200Z,14.56
2017-10-02T08:29:45.206Z,14.53
2017-10-02T08:30:45.213Z,14.55
2017-10-02T08:31:45.217Z,14.53
2017-10-02T08:32:45.232Z,14.55
2017-10-02T08:33:45.251Z,14.60
2017-10-02T08:34:45.239Z,14.61
2017-10-02T08:35:45.233Z,14.64
2017-10-02T08:36:45.233Z,14.67
2017-10-02T08:37:45.235Z,14.71
2017-10-02T08:38:45.245Z,14.77
2017-10-02T08:39:45.242Z,14.78
2017-10-02T08:40:45.241Z,14.80
2017-10-02T08:41:45.245Z,14.80
2017-10-02T08:42:45.246Z,14.83
2017-10-02T08:43:45.251Z,14.84
2017-10-02T08:44:45.255Z,14.87
2017-10-02T08:45:45.257Z,14.89
2017-10-02T08:46:45.262Z,14.93
2017-10-02T08:47:45.264Z,15.00
2017-10-02T08:48:45.271Z,15.03
2017-10-02T08:49:45.271Z,15.08
2017-10-02T08:50:45.273Z,15.12
2017-10-02T08:51:45.283Z,15.15
2017-10-02T08:52:45.283Z,15.13
2017-10-02T08:53:45.282Z,15.19
2017-10-02T08:54:45.294Z,15.23
2017-10-02T08:55:45.298Z,15.26
2017-10-02T08:56:45.307Z,15.27
2017-10-02T08:57:45.310Z,15.30
2017-10-02T08:58:45.322Z,15.31
2017-10-02T08:59:45.324Z,15.35
2017-10-02T09:00:45.339Z,15.38
2017-10-02T09:01:45.343Z,15.38
2017-10-02T09:02:45.354Z,15.34
2017-10-02T09:03:45.371Z,15.33
2017-10-02T09:04:45.371Z,15.35
2017-10-02T09:05:45.372Z,15.37
2017-10-02T09:06:45.375Z,15.32
2017-10-02T09:07:45.384Z,15.28
2017-10-02T09:08:45.336Z,15.25
2017-10-02T09:09:45.341Z,15.24
2017-10-02T09:10:45.346Z,15.23
2017-10-02T09:11:45.344Z,15.22
2017-10-02T09:12:45.349Z,15.20
2017-10-02T09:13:45.358Z,15.20
2017-10-02T09:14:45.356Z,15.18
2017-10-02T09:15:45.360Z,15.17
2017-10-02T09:16:45.364Z,15.17
2017-10-02T09:17:45.363Z,15.19
2017-10-02T09:18:45.382Z,15.17
2017-10-02T09:19:45.372Z,15.17
2017-10-02T09:20:45.376Z,15.15
2017-10-02T09:21:45.375Z,15.17
2017-10-02T09:22:45.382Z,15.13
2017-10-02T09:23:45.384Z,15.13
2017-10-02T09:24:45.388Z,15.13
2017-10-02T09:25:45.392Z,15.13
2017-10-02T09:26:45.398Z,15.15
2017-10-02T09:27:45.403Z,15.15
2017-10-02T09:28:45.409Z,15.18
2017-10-02T09:29:45.420Z,15.18
2017-10-02T09:30:45.422Z,15.20
2017-10-02T09:31:45.432Z,15.18
2017-10-02T09:32:45.436Z,15.15
2017-10-02T09:33:45.444Z,15.17
2017-10-02T09:34:45.451Z,15.18
2017-10-02T09:35:45.425Z,15.19
2017-10-02T09:36:45.428Z,15.21
2017-10-02T09:37:45.432Z,15.25
2017-10-02T09:38:45.438Z,15.29
2017-10-02T09:39:45.442Z,15.32
2017-10-02T09:40:45.453Z,15.34
2017-10-02T09:41:45.447Z,15.36
2017-10-02T09:42:45.446Z,15.36
2017-10-02T09:43:45.504Z,15.38
2017-10-02T09:44:45.455Z,15.40
2017-10-02T09:45:45.475Z,15.41
2017-10-02T09:46:45.473Z,15.43
2017-10-02T09:47:45.486Z,15.45
2017-10-02T09:48:45.473Z,15.46
2017-10-02T09:49:45.473Z,15.50
2017-10-02T09:50:45.475Z,15.51
2017-10-02T09:51:45.480Z,15.54
2017-10-02T09:52:45.480Z,15.54
2017-10-02T09:53:45.482Z,15.56
2017-10-02T09:54:45.506Z,15.58
2017-10-02T09:55:45.518Z,15.61
2017-10-02T09:56:45.496Z,15.62
2017-10-02T09:57:45.544Z,15.67
2017-10-02T09:58:45.502Z,15.71
2017-10-02T09:59:45.508Z,15.74
2017-10-02T10:00:45.510Z,15.78
2017-10-02T10:01:45.534Z,15.81
2017-10-02T10:02:45.532Z,15.86
2017-10-02T10:03:45.545Z,15.86
2017-10-02T10:04:45.520Z,15.91
2017-10-02T10:05:45.568Z,15.93
2017-10-02T10:06:45.537Z,15.90
2017-10-02T10:07:45.533Z,15.94
2017-10-02T10:08:45.532Z,15.88
2017-10-02T10:09:45.542Z,15.89
2017-10-02T10:10:45.540Z,15.91
2017-10-02T10:11:45.553Z,15.95
2017-10-02T10:12:45.549Z,15.94
2017-10-02T10:13:45.551Z,15.92
2017-10-02T10:14:45.558Z,15.91
2017-10-02T10:15:45.561Z,15.89
2017-10-02T10:16:45.563Z,15.92
2017-10-02T10:17:45.580Z,15.95
2017-10-02T10:18:45.571Z,15.96
2017-10-02T10:19:45.578Z,15.94
2017-10-02T10:20:45.577Z,15.94
2017-10-02T10:21:45.581Z,15.95
2017-10-02T10:22:45.593Z,15.95
2017-10-02T10:23:45.601Z,15.90
2017-10-02T10:24:45.598Z,15.86
2017-10-02T10:25:45.598Z,15.87
2017-10-02T10:26:45.623Z,15.87
2017-10-02T10:27:45.610Z,15.87
2017-10-02T10:28:45.609Z,15.84
2017-10-02T10:29:45.623Z,15.81
2017-10-02T10:30:46.136Z,15.76
2017-10-02T10:31:45.697Z,15.79
2017-10-02T10:32:45.627Z,15.77
2017-10-02T10:33:45.617Z,15.78
2017-10-02T10:34:45.633Z,15.77
2017-10-02T10:35:45.622Z,15.78
2017-10-02T10:36:45.635Z,15.78
2017-10-02T10:37:45.640Z,15.78
2017-10-02T10:38:45.648Z,15.80
2017-10-02T10:39:45.639Z,15.80
2017-10-02T10:40:45.643Z,15.84
2017-10-02T10:41:45.647Z,15.90
2017-10-02T10:42:45.652Z,15.91
2017-10-02T10:43:45.651Z,15.93
2017-10-02T10:44:45.659Z,15.91
2017-10-02T10:45:45.675Z,15.92
2017-10-02T10:46:45.665Z,15.93
2017-10-02T10:47:45.725Z,15.96
2017-10-02T10:48:45.685Z,15.94
2017-10-02T10:49:45.674Z,15.96
2017-10-02T10:50:45.682Z,15.95
2017-10-02T10:51:45.681Z,15.97
2017-10-02T10:52:45.726Z,15.98
2017-10-02T10:53:45.683Z,15.97
2017-10-02T10:54:45.709Z,15.92
2017-10-02T10:55:45.696Z,15.86
2017-10-02T10:56:45.702Z,15.83
2017-10-02T10:57:45.707Z,15.79
2017-10-02T10:58:45.702Z,15.78
2017-10-02T10:59:45.708Z,15.76
2017-10-02T11:00:45.705Z,15.72
2017-10-02T11:01:45.713Z,15.70
2017-10-02T11:02:45.720Z,15.67
2017-10-02T11:03:45.722Z,15.67
2017-10-02T11:04:45.725Z,15.65
2017-10-02T11:05:45.724Z,15.62
2017-10-02T11:06:45.728Z,15.61
2017-10-02T11:07:45.739Z,15.58
2017-10-02T11:08:45.734Z,15.60
2017-10-02T11:09:45.735Z,15.58
2017-10-02T11:10:45.742Z,15.55
2017-10-02T11:11:45.743Z,15.55
2017-10-02T11:12:45.750Z,15.55
2017-10-02T11:13:45.775Z,15.55
2017-10-02T11:14:45.756Z,15.57
2017-10-02T11:15:45.767Z,15.58
2017-10-02T11:16:46.073Z,15.58
2017-10-02T11:17:45.764Z,15.57
2017-10-02T11:18:45.769Z,15.55
2017-10-02T11:19:45.769Z,15.53
2017-10-02T11:20:45.773Z,15.50
2017-10-02T11:21:45.781Z,15.50
2017-10-02T11:22:45.784Z,15.49
2017-10-02T11:23:45.787Z,15.48
2017-10-02T11:24:45.787Z,15.48
2017-10-02T11:25:45.789Z,15.50
2017-10-02T11:26:45.798Z,15.50
2017-10-02T11:27:45.795Z,15.47
2017-10-02T11:28:45.801Z,15.48
2017-10-02T11:29:45.807Z,15.48
2017-10-02T11:30:45.811Z,15.47
2017-10-02T11:31:45.812Z,15.46
2017-10-02T11:32:45.813Z,15.46
2017-10-02T11:33:45.823Z,15.46
2017-10-02T11:34:45.823Z,15.45
2017-10-02T11:35:45.831Z,15.43
2017-10-02T11:36:45.826Z,15.43
2017-10-02T11:37:45.845Z,15.43
2017-10-02T11:38:45.836Z,15.44
2017-10-02T11:39:45.844Z,15.44
2017-10-02T11:40:45.843Z,15.45
2017-10-02T11:41:45.847Z,15.44
2017-10-02T11:42:45.846Z,15.42
2017-10-02T11:43:45.850Z,15.39
2017-10-02T11:44:45.851Z,15.38
2017-10-02T11:45:45.855Z,15.34
2017-10-02T11:46:45.858Z,15.31
2017-10-02T11:47:45.867Z,15.26
2017-10-02T11:48:45.869Z,15.25
2017-10-02T11:49:45.870Z,15.22
2017-10-02T11:50:45.873Z,15.16
2017-10-02T11:51:45.885Z,15.12
2017-10-02T11:52:45.887Z,15.08
2017-10-02T11:53:45.882Z,15.05
2017-10-02T11:54:45.888Z,15.03
2017-10-02T11:55:45.892Z,15.01
2017-10-02T11:56:45.892Z,14.94
2017-10-02T11:57:45.895Z,14.90
2017-10-02T11:58:45.901Z,14.85
2017-10-02T11:59:45.908Z,14.81
2017-10-02T12:00:45.905Z,14.76
2017-10-02T12:01:45.909Z,14.76
2017-10-02T12:02:45.911Z,14.76
2017-10-02T12:03:45.916Z,14.72
2017-10-02T12:04:45.922Z,14.69
2017-10-02T12:05:45.927Z,14.67
2017-10-02T12:06:45.945Z,14.66
2017-10-02T12:07:45.929Z,14.62
2017-10-02T12:08:45.936Z,14.59
2017-10-02T12:09:45.937Z,14.59
2017-10-02T12:10:45.965Z,14.56
2017-10-02T12:11:45.949Z,14.52
2017-10-02T12:12:45.947Z,14.49
2017-10-02T12:13:45.948Z,14.50
2017-10-02T12:14:45.955Z,14.48
2017-10-02T12:15:45.962Z,14.46
2017-10-02T12:16:45.966Z,14.44
2017-10-02T12:17:45.965Z,14.41
2017-10-02T12:18:45.968Z,14.40
2017-10-02T12:19:45.971Z,14.39
2017-10-02T12:20:45.974Z,14.37
2017-10-02T12:21:45.975Z,14.36
2017-10-02T12:22:45.988Z,14.38
2017-10-02T12:23:45.984Z,14.37
2017-10-02T12:24:45.987Z,14.35
2017-10-02T12:25:45.991Z,14.36
2017-10-02T12:26:45.992Z,14.39
2017-10-02T12:27:45.996Z,14.38
2017-10-02T12:28:46.002Z,14.37
2017-10-02T12:29:46.004Z,14.41
2017-10-02T12:30:46.011Z,14.44
2017-10-02T12:31:46.010Z,14.43
2017-10-02T12:32:46.019Z,14.43
2017-10-02T12:33:46.019Z,14.46
2017-10-02T12:34:46.022Z,14.50
2017-10-02T12:35:46.030Z,14.50
2017-10-02T12:36:46.035Z,14.53
2017-10-02T12:37:46.045Z,14.54
2017-10-02T12:38:46.035Z,14.49
2017-10-02T12:39:46.040Z,14.46
2017-10-02T12:40:46.044Z,14.45
2017-10-02T12:41:46.044Z,14.40
2017-10-02T12:42:46.051Z,14.37
2017-10-02T12:43:46.054Z,14.38
2017-10-02T12:44:46.061Z,14.38
2017-10-02T12:45:46.057Z,14.35
2017-10-02T12:46:46.066Z,14.33
2017-10-02T12:47:46.074Z,14.29
2017-10-02T12:48:46.068Z,14.29
2017-10-02T12:49:46.073Z,14.30
2017-10-02T12:50:46.075Z,14.32
2017-10-02T12:51:46.079Z,14.32
2017-10-02T12:52:46.080Z,14.32
2017-10-02T12:53:46.084Z,14.32
2017-10-02T12:54:46.086Z,14.32
2017-10-02T12:55:46.091Z,14.31
2017-10-02T12:56:46.095Z,14.30
2017-10-02T12:57:46.096Z,14.29
2017-10-02T12:58:46.104Z,14.30
2017-10-02T12:59:46.103Z,14.33
2017-10-02T13:00:46.108Z,14.31
2017-10-02T13:01:46.112Z,14.30
2017-10-02T13:02:46.128Z,14.30